createdAt,value
2019-03-03T00:00:54.438Z,58.15
2019-03-03T00:03:26.406Z,69.20
2019-03-03T00:06:00.777Z,64.72
2019-03-03T00:08:32.587Z,63.33
2019-03-03T00:11:06.330Z,58.50
2019-03-03T00:13:38.146Z,56.15
2019-03-03T00:16:10.928Z,52.55
2019-03-03T00:18:44.269Z,56.13
2019-03-03T00:21:19.547Z,63.05
2019-03-03T00:23:52.048Z,57.67
2019-03-03T00:26:23.851Z,58.00
2019-03-03T00:28:55.699Z,56.18
2019-03-03T00:31:38.039Z,55.43
2019-03-03T00:34:09.860Z,54.67
2019-03-03T00:36:59.572Z,59.35
2019-03-03T00:39:50.240Z,54.65
2019-03-03T00:42:32.613Z,53.35
2019-03-03T00:45:13.823Z,58.90
2019-03-03T00:48:13.883Z,57.93
2019-03-03T00:51:04.624Z,62.85
2019-03-03T00:53:55.375Z,59.98
2019-03-03T00:56:36.088Z,61.18
2019-03-03T00:59:26.818Z,58.20
2019-03-03T01:02:23.962Z,65.28
2019-03-03T01:05:15.115Z,63.08
2019-03-03T01:08:08.982Z,66.12
2019-03-03T01:11:00.200Z,59.10
2019-03-03T01:13:55.608Z,63.73
2019-03-03T01:16:46.704Z,62.93
2019-03-03T01:19:26.415Z,62.05
2019-03-03T01:22:15.995Z,66.28
2019-03-03T01:24:55.584Z,63.50
2019-03-03T01:27:28.112Z,70.08
2019-03-03T01:30:00.027Z,68.67
2019-03-03T01:32:33.819Z,65.85
2019-03-03T01:35:06.454Z,60.98
2019-03-03T01:37:38.288Z,61.68
2019-03-03T01:40:11.010Z,68.90
2019-03-03T01:42:42.845Z,63.20
2019-03-03T01:45:15.148Z,60.00
2019-03-03T01:47:47.027Z,60.98
2019-03-03T01:50:18.888Z,68.47
2019-03-03T01:52:51.208Z,63.70
2019-03-03T01:55:23.018Z,65.55
2019-03-03T01:57:54.970Z,69.60
2019-03-03T02:00:27.737Z,69.80
2019-03-03T02:02:59.837Z,63.28
2019-03-03T02:05:31.632Z,62.53
2019-03-03T02:08:03.783Z,70.67
2019-03-03T02:10:35.705Z,71.05
2019-03-03T02:13:08.927Z,70.12
2019-03-03T02:15:41.037Z,70.42
2019-03-03T02:18:12.886Z,65.62
2019-03-03T02:20:44.827Z,74.95
2019-03-03T02:23:16.713Z,66.00
2019-03-03T02:25:48.992Z,63.38
2019-03-03T02:28:20.846Z,68.57
2019-03-03T02:30:55.797Z,70.85
2019-03-03T02:33:29.889Z,61.28
2019-03-03T02:36:01.771Z,62.95
2019-03-03T02:38:33.609Z,68.17
2019-03-03T02:41:06.004Z,60.23
2019-03-03T02:43:40.451Z,60.17
2019-03-03T02:46:12.733Z,67.97
2019-03-03T02:48:44.571Z,66.35
2019-03-03T02:51:18.082Z,61.10
2019-03-03T02:53:49.983Z,73.97
2019-03-03T02:56:21.956Z,68.50
2019-03-03T02:58:53.789Z,64.07
2019-03-03T03:01:37.034Z,66.33
2019-03-03T03:04:09.063Z,72.27
2019-03-03T03:06:59.295Z,79.53
2019-03-03T03:09:58.853Z,74.27
2019-03-03T03:12:48.328Z,75.30
2019-03-03T03:15:54.516Z,77.10
2019-03-03T03:18:33.813Z,67.32
2019-03-03T03:21:21.501Z,72.47
2019-03-03T03:24:02.187Z,67.22
2019-03-03T03:26:39.662Z,63.30
2019-03-03T03:29:30.394Z,71.20
2019-03-03T03:32:23.374Z,68.22
2019-03-03T03:35:05.798Z,65.15
2019-03-03T03:38:00.962Z,67.55
2019-03-03T03:40:50.309Z,65.75
2019-03-03T03:43:41.613Z,63.98
2019-03-03T03:46:42.377Z,70.42
2019-03-03T03:49:29.517Z,70.05
2019-03-03T03:52:18.807Z,62.93
2019-03-03T03:55:17.018Z,61.73
2019-03-03T03:58:12.791Z,65.55
2019-03-03T04:01:06.854Z,64.60
2019-03-03T04:03:54.058Z,62.88
2019-03-03T04:06:57.434Z,70.30
2019-03-03T04:09:35.179Z,73.92
2019-03-03T04:12:28.690Z,68.47
2019-03-03T04:15:21.561Z,69.42
2019-03-03T04:18:03.188Z,70.25
2019-03-03T04:20:45.457Z,71.42
2019-03-03T04:23:51.301Z,66.85
2019-03-03T04:26:42.035Z,63.75
2019-03-03T04:29:36.644Z,67.62
2019-03-03T04:32:39.154Z,71.82
2019-03-03T04:35:28.446Z,72.85
2019-03-03T04:38:17.204Z,75.32
2019-03-03T04:41:24.103Z,78.65
2019-03-03T04:44:01.288Z,66.75
2019-03-03T04:46:57.991Z,64.85
2019-03-03T04:49:47.513Z,67.53
2019-03-03T04:52:34.377Z,67.53
2019-03-03T04:55:24.167Z,65.00
2019-03-03T04:58:17.999Z,65.08
2019-03-03T05:01:17.764Z,65.67
2019-03-03T05:04:23.577Z,55.73
2019-03-03T05:07:04.551Z,63.68
2019-03-03T05:09:43.018Z,68.37
2019-03-03T05:12:39.763Z,61.50
2019-03-03T05:15:41.585Z,59.45
2019-03-03T05:18:38.542Z,62.20
2019-03-03T05:21:12.133Z,64.47
2019-03-03T05:23:44.029Z,64.17
2019-03-03T05:26:15.826Z,70.85
2019-03-03T05:28:47.751Z,62.15
2019-03-03T05:31:19.624Z,61.75
2019-03-03T05:33:51.482Z,72.40
2019-03-03T05:36:24.890Z,63.85
2019-03-03T05:38:56.734Z,60.43
2019-03-03T05:41:28.585Z,62.88
2019-03-03T05:44:00.725Z,65.22
2019-03-03T05:46:32.583Z,65.50
2019-03-03T05:49:04.390Z,60.20
2019-03-03T05:51:37.691Z,60.50
2019-03-03T05:54:09.491Z,47.50
2019-03-03T05:56:41.539Z,55.90
2019-03-03T05:59:15.767Z,60.52
2019-03-03T06:01:47.595Z,59.05
2019-03-03T06:04:19.789Z,55.48
2019-03-03T06:06:52.128Z,56.40
2019-03-03T06:09:23.952Z,56.50
2019-03-03T06:11:55.802Z,40.92
2019-03-03T06:14:27.637Z,39.18
2019-03-03T06:17:00.695Z,30.17
2019-03-03T06:19:32.825Z,27.27
2019-03-03T06:22:04.717Z,22.48
2019-03-03T06:24:36.499Z,13.43
2019-03-03T06:27:08.716Z,16.10
2019-03-03T06:29:40.510Z,14.60
2019-03-03T06:32:12.324Z,14.83
2019-03-03T06:34:47.510Z,13.98
2019-03-03T06:37:19.355Z,15.90
2019-03-03T06:39:51.163Z,15.98
2019-03-03T06:42:24.308Z,12.80
2019-03-03T06:44:58.601Z,13.68
2019-03-03T06:47:30.437Z,14.43
2019-03-03T06:50:02.264Z,12.50
2019-03-03T06:52:34.087Z,15.90
2019-03-03T06:55:05.997Z,10.98
2019-03-03T06:57:37.888Z,15.90
2019-03-03T07:00:15.566Z,13.95
2019-03-03T07:02:47.357Z,11.80
2019-03-03T07:05:19.267Z,13.60
2019-03-03T07:07:51.260Z,13.75
2019-03-03T07:10:26.142Z,10.55
2019-03-03T07:12:57.963Z,10.88
2019-03-03T07:15:29.814Z,10.90
2019-03-03T07:18:01.583Z,12.07
2019-03-03T07:20:33.419Z,10.63
2019-03-03T07:23:05.277Z,9.30
2019-03-03T07:25:37.095Z,6.50
2019-03-03T07:28:08.960Z,7.28
2019-03-03T07:30:40.763Z,7.03
2019-03-03T07:33:15.365Z,10.03
2019-03-03T07:35:47.440Z,10.85
2019-03-03T07:38:19.247Z,10.65
2019-03-03T07:40:51.138Z,9.50
2019-03-03T07:43:22.937Z,10.25
2019-03-03T07:45:54.848Z,8.23
2019-03-03T07:48:26.701Z,10.25
2019-03-03T07:50:58.531Z,9.78
2019-03-03T07:53:30.363Z,9.83
2019-03-03T07:56:02.241Z,10.25
2019-03-03T07:58:34.180Z,12.53
2019-03-03T08:01:06.022Z,11.10
2019-03-03T08:03:39.559Z,10.68
2019-03-03T08:06:11.359Z,10.32
2019-03-03T08:08:46.055Z,10.95
2019-03-03T08:11:20.294Z,10.58
2019-03-03T08:13:52.162Z,9.65
2019-03-03T08:16:25.086Z,9.10
2019-03-03T08:18:56.903Z,12.50
2019-03-03T08:21:28.685Z,11.90
2019-03-03T08:24:00.533Z,8.60
2019-03-03T08:26:32.394Z,11.80
2019-03-03T08:29:04.569Z,14.43
2019-03-03T08:31:36.511Z,10.05
2019-03-03T08:34:08.494Z,11.28
2019-03-03T08:36:40.412Z,16.17
2019-03-03T08:39:12.340Z,9.93
2019-03-03T08:42:24.424Z,10.95
2019-03-03T08:45:09.977Z,10.82
2019-03-03T08:47:53.546Z,11.80
2019-03-03T08:50:30.459Z,8.10
2019-03-03T08:53:13.795Z,12.07
2019-03-03T08:56:04.854Z,7.50
2019-03-03T08:59:01.584Z,9.63
2019-03-03T09:02:04.217Z,5.90
2019-03-03T09:05:06.462Z,7.03
2019-03-03T09:07:49.750Z,5.30
2019-03-03T09:10:33.265Z,6.72
2019-03-03T09:13:13.914Z,5.35
2019-03-03T09:16:12.480Z,6.25
2019-03-03T09:19:09.129Z,8.00
2019-03-03T09:21:50.070Z,8.23
2019-03-03T09:24:53.867Z,6.55
2019-03-03T09:27:44.579Z,8.38
2019-03-03T09:30:41.149Z,7.30
2019-03-03T09:33:39.405Z,9.33
2019-03-03T09:36:28.985Z,8.70
2019-03-03T09:39:19.567Z,6.60
2019-03-03T09:42:03.286Z,12.07
2019-03-03T09:44:56.215Z,12.53
2019-03-03T09:47:48.578Z,13.25
2019-03-03T09:50:37.297Z,12.07
2019-03-03T09:53:27.990Z,6.87
2019-03-03T09:56:19.202Z,12.25
2019-03-03T09:59:15.789Z,10.28
2019-03-03T10:02:06.527Z,10.10
2019-03-03T10:04:56.317Z,10.80
2019-03-03T10:07:45.713Z,7.25
2019-03-03T10:10:29.192Z,12.50
2019-03-03T10:13:07.285Z,34.13
2019-03-03T10:16:02.651Z,10.25
2019-03-03T10:19:07.266Z,11.60
2019-03-03T10:22:07.260Z,5.25
2019-03-03T10:24:56.382Z,7.62
2019-03-03T10:27:45.047Z,8.25
2019-03-03T10:30:34.441Z,5.22
2019-03-03T10:33:28.483Z,4.83
2019-03-03T10:36:17.869Z,4.00
2019-03-03T10:39:21.061Z,4.47
2019-03-03T10:42:13.179Z,4.15
2019-03-03T10:44:59.321Z,5.33
2019-03-03T10:47:50.063Z,4.85
2019-03-03T10:50:30.397Z,3.30
2019-03-03T10:53:05.995Z,5.33
2019-03-03T10:55:56.800Z,6.17
2019-03-03T10:58:53.691Z,3.52
2019-03-03T11:01:47.099Z,4.28
2019-03-03T11:04:47.077Z,5.62
2019-03-03T11:07:38.170Z,3.60
2019-03-03T11:10:27.490Z,2.85
2019-03-03T11:13:16.372Z,3.25
2019-03-03T11:15:55.736Z,5.47
2019-03-03T11:18:56.039Z,4.92
2019-03-03T11:21:44.001Z,4.90
2019-03-03T11:24:24.355Z,4.00
2019-03-03T11:27:16.959Z,4.70
2019-03-03T11:30:22.304Z,4.47
2019-03-03T11:33:11.677Z,6.03
2019-03-03T11:36:02.585Z,5.40
2019-03-03T11:38:56.231Z,5.97
2019-03-03T11:41:47.030Z,4.62
2019-03-03T11:44:32.546Z,3.72
2019-03-03T11:47:21.745Z,6.90
2019-03-03T11:50:12.399Z,4.28
2019-03-03T11:53:03.132Z,6.22
2019-03-03T11:56:00.438Z,5.65
2019-03-03T11:58:57.219Z,6.70
2019-03-03T12:02:05.838Z,8.68
2019-03-03T12:05:06.129Z,3.60
2019-03-03T12:07:59.569Z,6.97
2019-03-03T12:10:37.608Z,7.10
2019-03-03T12:13:27.061Z,4.97
2019-03-03T12:16:23.828Z,9.43
2019-03-03T12:19:14.538Z,4.78
2019-03-03T12:22:05.370Z,6.12
2019-03-03T12:25:11.669Z,8.65
2019-03-03T12:27:59.815Z,5.70
2019-03-03T12:43:12.093Z,6.67
2019-03-03T12:45:53.544Z,4.83
2019-03-03T12:48:53.335Z,4.05
2019-03-03T12:51:42.689Z,7.83
2019-03-03T12:54:48.737Z,6.60
2019-03-03T12:57:46.883Z,4.62
2019-03-03T13:00:37.701Z,6.05
2019-03-03T13:03:34.954Z,6.80
2019-03-03T13:06:26.531Z,5.17
2019-03-03T13:09:15.839Z,7.65
2019-03-03T13:12:23.336Z,6.95
2019-03-03T13:15:04.614Z,8.20
2019-03-03T13:17:53.486Z,6.20
2019-03-03T13:20:56.338Z,13.15
2019-03-03T13:23:45.681Z,6.80
2019-03-03T13:26:48.736Z,7.70
2019-03-03T13:29:42.502Z,23.70
2019-03-03T13:32:30.174Z,6.12
2019-03-03T13:35:27.285Z,9.38
2019-03-03T13:38:10.877Z,3.75
2019-03-03T13:41:04.664Z,8.80
2019-03-03T13:43:36.497Z,9.90
2019-03-03T13:46:08.605Z,8.08
2019-03-03T13:48:40.530Z,9.68
2019-03-03T13:51:12.475Z,7.47
2019-03-03T13:53:44.328Z,9.50
2019-03-03T13:56:16.428Z,7.08
2019-03-03T13:58:48.216Z,7.12
2019-03-03T14:01:21.781Z,5.03
2019-03-03T14:03:53.620Z,7.75
2019-03-03T14:06:25.458Z,5.83
2019-03-03T14:08:57.304Z,5.53
2019-03-03T14:11:32.697Z,9.65
2019-03-03T14:14:04.897Z,6.70
2019-03-03T14:16:36.786Z,6.40
2019-03-03T14:19:08.617Z,6.10
2019-03-03T14:21:40.398Z,5.75
2019-03-03T14:24:12.291Z,8.48
2019-03-03T14:26:44.072Z,8.20
2019-03-03T14:29:15.914Z,11.38
2019-03-03T14:31:47.690Z,6.70
2019-03-03T14:34:19.540Z,5.78
2019-03-03T14:36:51.603Z,19.35
2019-03-03T14:39:23.452Z,9.80
2019-03-03T14:41:55.342Z,6.53
2019-03-03T14:44:27.200Z,8.53
2019-03-03T14:47:01.865Z,8.63
2019-03-03T14:49:33.866Z,5.72
2019-03-03T14:52:05.886Z,7.60
2019-03-03T14:54:37.825Z,5.55
2019-03-03T14:57:09.698Z,6.22
2019-03-03T14:59:41.517Z,8.33
2019-03-03T15:02:13.479Z,8.20
2019-03-03T15:04:45.263Z,7.12
2019-03-03T15:07:17.093Z,6.55
2019-03-03T15:09:48.963Z,5.75
2019-03-03T15:12:21.123Z,4.40
2019-03-03T15:14:52.927Z,6.05
2019-03-03T15:17:25.104Z,5.40
2019-03-03T15:19:56.910Z,6.85
2019-03-03T15:22:28.734Z,6.00
2019-03-03T15:25:00.566Z,12.65
2019-03-03T15:27:34.170Z,8.13
2019-03-03T15:30:06.503Z,9.75
2019-03-03T15:32:39.601Z,5.95
2019-03-03T15:35:11.544Z,3.83
2019-03-03T15:37:44.391Z,6.95
2019-03-03T15:40:17.929Z,4.92
2019-03-03T15:42:50.046Z,9.55
2019-03-03T15:45:22.573Z,4.75
2019-03-03T15:47:54.516Z,7.58
2019-03-03T15:50:26.750Z,5.03
2019-03-03T15:52:58.657Z,4.78
2019-03-03T15:55:30.815Z,4.47
2019-03-03T15:58:02.802Z,11.08
2019-03-03T16:00:34.668Z,5.87
2019-03-03T16:03:07.353Z,12.80
2019-03-03T16:05:39.195Z,4.97
2019-03-03T16:08:11.033Z,6.12
2019-03-03T16:10:42.852Z,6.03
2019-03-03T16:13:14.683Z,5.60
2019-03-03T16:15:46.678Z,5.53
2019-03-03T16:18:18.648Z,4.45
2019-03-03T16:20:50.459Z,7.80
2019-03-03T16:23:22.316Z,4.72
2019-03-03T16:25:54.157Z,5.72
2019-03-03T16:28:25.981Z,6.08
2019-03-03T16:30:57.815Z,8.38
2019-03-03T16:33:30.621Z,5.15
2019-03-03T16:36:02.844Z,8.35
2019-03-03T16:38:34.688Z,6.55
2019-03-03T16:41:06.719Z,8.85
2019-03-03T16:43:38.535Z,9.50
2019-03-03T16:46:10.460Z,10.75
2019-03-03T16:48:42.259Z,7.58
2019-03-03T16:51:14.147Z,5.08
2019-03-03T16:53:46.014Z,8.38
2019-03-03T16:56:17.917Z,9.38
2019-03-03T16:58:49.827Z,7.17
2019-03-03T17:01:24.492Z,4.22
2019-03-03T17:03:57.497Z,7.47
2019-03-03T17:06:29.355Z,7.30
2019-03-03T17:09:01.146Z,9.25
2019-03-03T17:11:35.240Z,7.45
2019-03-03T17:14:07.074Z,4.83
2019-03-03T17:16:39.071Z,6.22
2019-03-03T17:19:10.832Z,7.15
2019-03-03T17:21:42.819Z,10.93
2019-03-03T17:24:14.619Z,8.83
2019-03-03T17:26:46.436Z,4.03
2019-03-03T17:29:18.255Z,9.23
2019-03-03T17:31:50.112Z,5.53
2019-03-03T17:34:21.981Z,9.75
2019-03-03T17:36:53.807Z,6.28
2019-03-03T17:39:26.139Z,9.18
2019-03-03T17:41:58.136Z,8.33
2019-03-03T17:44:30.116Z,7.62
2019-03-03T17:47:01.919Z,3.67
2019-03-03T17:49:34.254Z,6.20
2019-03-03T17:52:06.135Z,8.75
2019-03-03T17:54:39.566Z,8.03
2019-03-03T17:57:11.449Z,7.08
2019-03-03T17:59:43.246Z,4.58
2019-03-03T18:02:15.145Z,4.15
2019-03-03T18:04:47.002Z,7.28
2019-03-03T18:07:18.930Z,5.17
2019-03-03T18:09:50.913Z,8.03
2019-03-03T18:12:22.757Z,6.53
2019-03-03T18:14:55.015Z,7.83
2019-03-03T18:17:26.955Z,5.62
2019-03-03T18:19:58.847Z,10.30
2019-03-03T18:22:30.724Z,6.83
2019-03-03T18:25:02.624Z,6.50
2019-03-03T18:27:34.442Z,5.30
2019-03-03T18:30:09.661Z,8.13
2019-03-03T18:32:43.397Z,9.75
2019-03-03T18:35:15.624Z,10.60
2019-03-03T18:37:48.020Z,8.20
2019-03-03T18:40:20.647Z,8.70
2019-03-03T18:42:52.782Z,7.12
2019-03-03T18:45:24.650Z,6.30
2019-03-03T18:47:56.790Z,8.03
2019-03-03T18:50:28.735Z,8.80
2019-03-03T18:53:01.933Z,8.35
2019-03-03T18:55:33.758Z,9.68
2019-03-03T18:58:06.447Z,7.30
2019-03-03T19:00:40.807Z,6.55
2019-03-03T19:03:12.977Z,9.85
2019-03-03T19:05:44.830Z,6.37
2019-03-03T19:08:16.742Z,7.25
2019-03-03T19:10:48.939Z,10.38
2019-03-03T19:13:21.761Z,9.40
2019-03-03T19:15:53.636Z,6.22
2019-03-03T19:18:25.813Z,8.20
2019-03-03T19:20:59.275Z,8.65
2019-03-03T19:23:31.219Z,10.30
2019-03-03T19:26:05.521Z,9.48
2019-03-03T19:28:37.237Z,8.90
2019-03-03T19:31:10.790Z,6.97
2019-03-03T19:33:48.634Z,6.83
2019-03-03T19:36:20.989Z,10.48
2019-03-03T19:38:53.551Z,9.18
2019-03-03T19:41:25.531Z,10.00
2019-03-03T19:43:57.553Z,9.73
2019-03-03T19:46:30.864Z,10.05
2019-03-03T19:49:04.866Z,4.37
2019-03-03T19:51:37.170Z,8.13
2019-03-03T19:54:09.235Z,9.83
2019-03-03T19:56:42.836Z,9.50
2019-03-03T19:59:14.684Z,8.53
2019-03-03T20:01:47.068Z,13.85
2019-03-03T20:04:19.056Z,11.38
2019-03-03T20:06:51.292Z,7.45
2019-03-03T20:09:23.577Z,8.20
2019-03-03T20:11:56.138Z,9.55
2019-03-03T20:14:28.180Z,10.65
2019-03-03T20:17:00.587Z,9.18
2019-03-03T20:19:33.247Z,13.78
2019-03-03T20:22:08.522Z,11.08
2019-03-03T20:24:41.444Z,13.00
2019-03-03T20:27:14.927Z,13.70
2019-03-03T20:29:48.431Z,13.70
2019-03-03T20:32:22.551Z,12.65
2019-03-03T20:34:54.477Z,10.32
2019-03-03T20:37:26.369Z,9.83
2019-03-03T20:39:58.227Z,7.75
2019-03-03T20:42:30.225Z,10.70
2019-03-03T20:45:05.297Z,9.95
2019-03-03T20:47:37.773Z,5.80
2019-03-03T20:50:13.985Z,8.38
2019-03-03T20:52:46.290Z,10.40
2019-03-03T20:55:20.183Z,10.63
2019-03-03T20:57:52.344Z,5.50
2019-03-03T21:00:25.666Z,11.22
2019-03-03T21:02:59.694Z,9.90
2019-03-03T21:05:31.548Z,10.18
2019-03-03T21:08:03.523Z,7.60
2019-03-03T21:10:35.934Z,9.03
2019-03-03T21:13:07.879Z,6.42
2019-03-03T21:15:39.887Z,8.90
2019-03-03T21:18:11.709Z,6.67
2019-03-03T21:20:45.630Z,6.90
2019-03-03T21:23:18.419Z,5.40
2019-03-03T21:25:51.931Z,8.90
2019-03-03T21:28:25.556Z,4.30
2019-03-03T21:30:57.388Z,6.25
2019-03-03T21:33:29.417Z,5.62
2019-03-03T21:36:03.736Z,5.75
2019-03-03T21:38:35.634Z,5.25
2019-03-03T21:41:07.619Z,4.75
2019-03-03T21:43:39.412Z,6.25
2019-03-03T21:46:11.382Z,6.85
2019-03-03T21:48:43.328Z,6.33
2019-03-03T21:51:15.181Z,4.87
2019-03-03T21:53:47.017Z,7.33
2019-03-03T21:56:19.219Z,3.80
2019-03-03T21:58:51.674Z,4.37
2019-03-03T22:01:25.260Z,3.25
2019-03-03T22:03:57.162Z,6.67
2019-03-03T22:06:29.033Z,2.90
2019-03-03T22:09:03.967Z,3.95
2019-03-03T22:11:37.662Z,4.25
2019-03-03T22:14:09.831Z,3.35
2019-03-03T22:16:42.639Z,11.78
2019-03-03T22:19:14.746Z,17.98
2019-03-03T22:21:46.570Z,13.20
2019-03-03T22:24:18.524Z,13.53
2019-03-03T22:40:19.093Z,16.93
2019-03-03T22:42:53.025Z,15.20
2019-03-03T22:45:27.201Z,14.75
2019-03-03T22:47:59.042Z,14.10
2019-03-03T22:50:30.886Z,20.25
2019-03-03T22:53:05.861Z,18.82
2019-03-03T22:55:40.481Z,18.65
2019-03-03T22:58:12.561Z,24.63
2019-03-03T23:01:07.101Z,13.65
2019-03-03T23:03:49.744Z,11.90
2019-03-03T23:06:48.920Z,17.50
2019-03-03T23:10:05.057Z,18.10
2019-03-03T23:13:18.574Z,15.78
2019-03-03T23:16:29.990Z,11.80
2019-03-03T23:19:44.519Z,16.75
2019-03-03T23:22:57.986Z,21.80
2019-03-03T23:25:51.783Z,19.75
2019-03-03T23:28:28.366Z,21.80
2019-03-03T23:31:00.533Z,21.73
2019-03-03T23:33:45.568Z,17.25
2019-03-03T23:36:17.629Z,17.65
2019-03-03T23:38:57.230Z,18.85
2019-03-03T23:41:29.415Z,20.68
2019-03-03T23:44:04.987Z,21.57
2019-03-03T23:46:37.250Z,18.12
2019-03-03T23:49:29.745Z,20.35
2019-03-03T23:52:05.318Z,20.08
2019-03-03T23:54:38.430Z,18.32
2019-03-03T23:57:11.700Z,18.10
2019-03-03T23:59:47.914Z,21.85
